Time;durP1;ratioP1;P1;durP2;ratioP2;P2;SDS_P1;SDS_P2;PMS_P1;PMS_P2;Temp;Humidity;BMP_temperature;BMP_pressure;BME280_temperature;BME280_humidity;BME280_pressure;Samples;Min_cycle;Max_cycle;Signal;HPM_P1;HPM_P2
2024/01/20 00:01:42;;;;;;;23.00;10.93;;;-5.70;98.40;;;;;;4986571;28;20265;-53
2024/01/20 00:04:08;;;;;;;20.00;10.13;;;-5.70;98.10;;;;;;4973317;28;20185;-54
2024/01/20 00:06:33;;;;;;;22.83;11.40;;;-5.80;97.90;;;;;;4984568;28;20183;-54
2024/01/20 00:08:59;;;;;;;18.50;10.47;;;-5.80;97.70;;;;;;4986738;28;20733;-53
2024/01/20 00:11:24;;;;;;;19.53;8.93;;;-5.80;97.70;;;;;;4987327;28;20209;-53
2024/01/20 00:13:50;;;;;;;18.90;8.67;;;-5.80;98.00;;;;;;4982142;28;20317;-53
2024/01/20 00:16:15;;;;;;;18.33;10.67;;;-5.80;97.60;;;;;;4987740;28;20182;-53
2024/01/20 00:18:41;;;;;;;24.57;9.83;;;-5.80;97.30;;;;;;4986199;28;20311;-55
2024/01/20 00:21:07;;;;;;;25.40;10.73;;;-5.80;97.00;;;;;;4986606;28;20189;-55
2024/01/20 00:23:32;;;;;;;25.30;10.60;;;-5.90;96.40;;;;;;4977529;28;20171;-55
2024/01/20 00:25:58;;;;;;;25.33;11.03;;;-5.90;96.40;;;;;;4981761;28;20206;-55
2024/01/20 00:28:23;;;;;;;28.40;13.37;;;-5.90;96.40;;;;;;4988360;28;20211;-54
2024/01/20 00:30:49;;;;;;;31.13;12.57;;;-5.90;96.50;;;;;;4986881;28;20210;-55
2024/01/20 00:33:14;;;;;;;28.73;11.30;;;-5.90;96.30;;;;;;4984135;28;20186;-54
2024/01/20 00:35:44;;;;;;;21.43;10.47;;;-5.90;96.00;;;;;;4983266;28;20704;-55
2024/01/20 00:38:10;;;;;;;22.90;11.10;;;-6.00;95.60;;;;;;4981228;28;20216;-58
2024/01/20 00:40:36;;;;;;;23.00;11.23;;;-6.10;96.10;;;;;;4987192;28;20418;-56
2024/01/20 00:43:02;;;;;;;18.43;9.63;;;-6.10;96.30;;;;;;4984921;28;20401;-54
2024/01/20 00:45:27;;;;;;;22.60;10.57;;;-6.10;96.50;;;;;;4981250;28;20261;-55
2024/01/20 00:47:53;;;;;;;29.70;11.20;;;-6.20;96.70;;;;;;4985728;28;20519;-55
2024/01/20 00:50:18;;;;;;;19.03;10.30;;;-6.20;96.90;;;;;;4985846;28;20785;-55
2024/01/20 00:52:44;;;;;;;21.10;9.57;;;-6.20;96.90;;;;;;4986375;28;20256;-55
2024/01/20 00:55:10;;;;;;;24.23;11.17;;;-6.20;97.40;;;;;;4985976;28;20229;-55
2024/01/20 00:57:36;;;;;;;21.97;10.70;;;-6.20;97.70;;;;;;4982479;28;20530;-54
2024/01/20 01:00:07;;;;;;;20.53;10.77;;;-6.10;97.40;;;;;;4975282;28;20535;-58
2024/01/20 01:02:32;;;;;;;27.20;11.17;;;-6.20;97.40;;;;;;4981870;28;20543;-56
2024/01/20 01:04:58;;;;;;;19.73;9.33;;;-6.20;97.40;;;;;;4983693;28;20431;-54
2024/01/20 01:07:24;;;;;;;25.47;10.60;;;-6.20;97.20;;;;;;4982858;28;20270;-56
2024/01/20 01:09:50;;;;;;;26.60;10.13;;;-6.20;97.10;;;;;;4977205;28;20210;-55
2024/01/20 01:12:15;;;;;;;28.00;10.83;;;-6.20;97.10;;;;;;4990376;28;20377;-54
2024/01/20 01:14:41;;;;;;;19.67;9.70;;;-6.20;97.10;;;;;;4989646;28;20417;-53
2024/01/20 01:17:07;;;;;;;20.57;10.13;;;-6.20;96.80;;;;;;4985444;28;20261;-54
2024/01/20 01:19:32;;;;;;;24.27;10.00;;;-6.30;96.30;;;;;;4985832;28;22181;-54
2024/01/20 01:21:58;;;;;;;20.33;10.47;;;-6.30;96.50;;;;;;4987933;28;20599;-54
2024/01/20 01:24:23;;;;;;;21.20;10.13;;;-6.30;96.30;;;;;;4983895;28;20678;-54
2024/01/20 01:26:49;;;;;;;19.30;10.47;;;-6.40;96.40;;;;;;4985555;28;20194;-54
2024/01/20 01:29:15;;;;;;;26.90;10.37;;;-6.40;96.90;;;;;;4979531;28;20205;-54
2024/01/20 01:31:40;;;;;;;18.00;9.27;;;-6.40;96.80;;;;;;4976625;28;20324;-56
2024/01/20 01:34:06;;;;;;;23.20;10.17;;;-6.40;96.60;;;;;;4978953;28;20190;-54
2024/01/20 01:36:31;;;;;;;23.17;11.10;;;-6.40;96.30;;;;;;4988001;28;20171;-58
2024/01/20 01:38:57;;;;;;;15.40;10.10;;;-6.40;96.40;;;;;;4980338;28;20288;-53
2024/01/20 01:41:22;;;;;;;17.60;10.00;;;-6.50;96.70;;;;;;4986216;28;20764;-56
2024/01/20 01:43:48;;;;;;;23.53;10.60;;;-6.40;96.60;;;;;;4980720;28;20200;-55
2024/01/20 01:46:14;;;;;;;25.10;10.93;;;-6.40;96.60;;;;;;4976427;28;20273;-54
2024/01/20 01:48:40;;;;;;;27.13;10.80;;;-6.50;96.10;;;;;;4978092;28;20218;-54
2024/01/20 01:51:06;;;;;;;23.23;10.67;;;-6.40;95.70;;;;;;4985626;28;20408;-54
2024/01/20 01:53:33;;;;;;;24.43;11.73;;;-6.50;95.60;;;;;;4979506;28;20175;-55
2024/01/20 01:56:00;;;;;;;35.17;13.37;;;-6.50;95.90;;;;;;4982097;28;20983;-55
2024/01/20 01:58:27;;;;;;;35.50;13.50;;;-6.50;96.10;;;;;;4986427;28;20849;-54
2024/01/20 02:00:54;;;;;;;32.77;13.33;;;-6.50;95.90;;;;;;4986392;28;20273;-55
2024/01/20 02:03:19;;;;;;;28.43;12.87;;;-6.60;95.70;;;;;;4985057;28;20769;-56
2024/01/20 02:05:45;;;;;;;32.73;13.83;;;-6.60;96.00;;;;;;4986266;28;20428;-54
2024/01/20 02:08:11;;;;;;;25.13;13.13;;;-6.60;95.70;;;;;;4985923;28;20185;-54
2024/01/20 02:10:38;;;;;;;27.13;12.50;;;-6.60;96.20;;;;;;4983717;28;20565;-54
2024/01/20 02:13:04;;;;;;;27.45;11.35;;;-6.60;96.80;;;;;;4982998;28;20550;-54
2024/01/20 02:15:32;;;;;;;32.47;12.37;;;-6.60;96.40;;;;;;4985122;28;20583;-55
2024/01/20 02:17:57;;;;;;;24.92;10.80;;;-6.60;96.10;;;;;;4980571;28;20409;-53
2024/01/20 02:20:24;;;;;;;24.33;10.57;;;-6.60;95.50;;;;;;4983447;28;20813;-54
2024/01/20 02:22:49;;;;;;;28.00;11.00;;;-6.60;95.60;;;;;;4982799;28;20186;-56
2024/01/20 02:25:15;;;;;;;23.23;11.03;;;-6.70;95.40;;;;;;4981928;28;20459;-55
2024/01/20 02:27:41;;;;;;;17.60;9.60;;;-6.70;94.90;;;;;;4981937;28;20197;-54
2024/01/20 02:30:07;;;;;;;30.37;11.87;;;-6.70;95.30;;;;;;4981763;28;20202;-56
2024/01/20 02:32:33;;;;;;;28.65;10.98;;;-6.70;95.20;;;;;;4986008;28;20392;-55
2024/01/20 02:34:59;;;;;;;27.60;10.70;;;-6.70;95.20;;;;;;4987996;28;20772;-54
2024/01/20 02:37:24;;;;;;;22.73;10.90;;;-6.70;94.90;;;;;;4988671;28;20393;-55
2024/01/20 02:39:50;;;;;;;21.70;10.67;;;-6.70;95.00;;;;;;4989196;28;20202;-55
2024/01/20 02:42:15;;;;;;;20.40;9.67;;;-6.70;95.10;;;;;;4985890;28;20670;-54
2024/01/20 02:44:42;;;;;;;19.97;10.17;;;-6.70;95.20;;;;;;4986458;28;20189;-53
2024/01/20 02:47:08;;;;;;;23.02;10.98;;;-6.70;95.00;;;;;;4985391;28;20186;-54
2024/01/20 02:49:34;;;;;;;22.63;10.68;;;-6.70;94.70;;;;;;4984595;28;20571;-53
2024/01/20 02:51:59;;;;;;;20.90;9.80;;;-6.70;95.10;;;;;;4983603;28;20193;-55
2024/01/20 02:54:25;;;;;;;19.07;10.70;;;-6.70;95.30;;;;;;4988534;28;20521;-53
2024/01/20 02:56:51;;;;;;;20.60;10.30;;;-6.70;95.50;;;;;;4988032;28;20213;-54
2024/01/20 02:59:16;;;;;;;22.67;10.37;;;-6.80;95.00;;;;;;4989028;28;20202;-55
2024/01/20 03:01:42;;;;;;;18.27;9.50;;;-6.70;95.00;;;;;;4982428;28;20208;-54
2024/01/20 03:04:07;;;;;;;21.33;10.30;;;-6.70;94.90;;;;;;4984709;28;20182;-55
2024/01/20 03:06:33;;;;;;;19.37;9.47;;;-6.70;94.50;;;;;;4982801;28;20179;-55
2024/01/20 03:08:59;;;;;;;19.80;11.10;;;-6.70;94.10;;;;;;4983485;28;20221;-55
2024/01/20 03:11:25;;;;;;;23.03;10.50;;;-6.80;94.10;;;;;;4985802;28;20190;-55
2024/01/20 03:13:51;;;;;;;23.87;10.07;;;-6.80;93.90;;;;;;4983423;28;20226;-56
2024/01/20 03:16:16;;;;;;;15.13;8.97;;;-6.80;93.70;;;;;;4986425;28;20482;-55
2024/01/20 03:18:42;;;;;;;19.13;9.80;;;-6.80;93.90;;;;;;4984185;28;20522;-54
2024/01/20 03:21:08;;;;;;;19.00;9.80;;;-6.80;93.80;;;;;;4986357;28;20171;-54
2024/01/20 03:23:34;;;;;;;16.88;9.20;;;-6.90;93.60;;;;;;4983130;28;20199;-54
2024/01/20 03:26:10;;;;;;;21.80;9.70;;;-6.90;93.20;;;;;;4975646;28;20796;-53
2024/01/20 03:28:36;;;;;;;23.05;9.95;;;-6.90;93.60;;;;;;4985542;28;20424;-56
2024/01/20 03:31:02;;;;;;;19.20;8.88;;;-6.90;93.50;;;;;;4987811;28;20202;-55
2024/01/20 03:33:27;;;;;;;22.33;9.83;;;-6.90;93.50;;;;;;4981455;28;20181;-55
2024/01/20 03:35:53;;;;;;;21.80;9.60;;;-6.90;93.20;;;;;;4983336;28;20207;-56
2024/01/20 03:38:19;;;;;;;17.17;8.67;;;-6.90;92.50;;;;;;4984736;28;20190;-56
2024/01/20 03:40:45;;;;;;;18.17;9.67;;;-6.90;92.40;;;;;;4987748;28;21001;-55
2024/01/20 03:43:11;;;;;;;19.43;9.90;;;-7.00;91.60;;;;;;4984212;28;20185;-55
2024/01/20 03:45:42;;;;;;;15.55;8.75;;;-7.00;91.40;;;;;;4981880;28;20265;-54
2024/01/20 03:48:07;;;;;;;22.00;9.25;;;-7.00;91.40;;;;;;4985937;28;20178;-54
2024/01/20 03:50:33;;;;;;;18.10;9.57;;;-7.10;91.30;;;;;;4986605;28;20640;-54
2024/01/20 03:52:58;;;;;;;25.57;9.33;;;-7.10;91.50;;;;;;4984341;28;20213;-55
2024/01/20 03:55:24;;;;;;;17.50;9.60;;;-7.10;91.60;;;;;;4988185;28;20640;-54
2024/01/20 03:57:49;;;;;;;24.43;9.80;;;-7.10;91.50;;;;;;4975336;28;20191;-55
2024/01/20 04:00:15;;;;;;;19.03;9.40;;;-7.10;91.70;;;;;;4985174;28;20210;-55
2024/01/20 04:02:41;;;;;;;15.07;8.20;;;-7.10;91.70;;;;;;4982888;28;20264;-54
2024/01/20 04:05:07;;;;;;;21.23;9.67;;;-7.20;91.10;;;;;;4985509;28;20404;-55
2024/01/20 04:07:32;;;;;;;16.30;8.30;;;-7.20;91.00;;;;;;4988902;28;20245;-55
2024/01/20 04:09:58;;;;;;;15.80;8.70;;;-7.20;90.80;;;;;;4988653;28;20203;-54
2024/01/20 04:12:24;;;;;;;29.43;11.20;;;-7.20;90.90;;;;;;4987561;28;20221;-54
2024/01/20 04:14:49;;;;;;;18.27;8.50;;;-7.20;90.70;;;;;;4987874;28;20179;-54
2024/01/20 04:17:16;;;;;;;16.97;8.50;;;-7.30;90.80;;;;;;4985792;28;20466;-54
2024/01/20 04:19:41;;;;;;;19.23;9.45;;;-7.30;90.60;;;;;;4983135;28;20261;-55
2024/01/20 04:22:07;;;;;;;19.43;8.10;;;-7.30;90.20;;;;;;4980240;28;20194;-55
2024/01/20 04:24:32;;;;;;;19.93;9.20;;;-7.30;90.00;;;;;;4988805;28;20178;-54
2024/01/20 04:26:58;;;;;;;14.30;8.53;;;-7.30;88.90;;;;;;4983514;28;20193;-54
2024/01/20 04:29:24;;;;;;;18.20;9.17;;;-7.30;89.10;;;;;;4977049;28;20272;-54
2024/01/20 04:31:49;;;;;;;16.73;8.70;;;-7.30;89.30;;;;;;4982196;28;20265;-56
2024/01/20 04:34:15;;;;;;;18.87;9.20;;;-7.30;89.70;;;;;;4986695;28;20657;-54
2024/01/20 04:36:40;;;;;;;16.43;7.93;;;-7.40;89.50;;;;;;4978726;28;20222;-54
2024/01/20 04:39:06;;;;;;;20.80;9.53;;;-7.40;89.00;;;;;;4982527;28;20221;-54
2024/01/20 04:41:31;;;;;;;16.47;9.53;;;-7.40;89.10;;;;;;4984070;28;20181;-54
2024/01/20 04:43:57;;;;;;;19.60;8.90;;;-7.40;90.00;;;;;;4987531;28;20185;-54
2024/01/20 04:46:23;;;;;;;19.30;10.23;;;-7.40;90.50;;;;;;4981892;28;20178;-54
2024/01/20 04:48:48;;;;;;;22.43;9.80;;;-7.40;90.60;;;;;;4986673;28;20202;-55
2024/01/20 04:51:14;;;;;;;18.53;8.97;;;-7.40;90.50;;;;;;4978150;28;20236;-56
2024/01/20 04:53:39;;;;;;;19.50;9.13;;;-7.40;91.10;;;;;;4986597;28;20182;-54
2024/01/20 04:56:05;;;;;;;22.10;10.23;;;-7.40;91.60;;;;;;4982281;28;20554;-54
2024/01/20 04:58:31;;;;;;;19.00;9.50;;;-7.40;91.70;;;;;;4984965;28;20237;-53
2024/01/20 05:00:57;;;;;;;18.48;9.43;;;-7.40;91.50;;;;;;4988033;28;20193;-54
2024/01/20 05:03:23;;;;;;;17.33;8.43;;;-7.40;91.50;;;;;;4983390;28;20173;-55
2024/01/20 05:05:49;;;;;;;24.40;10.07;;;-7.40;91.70;;;;;;4981270;28;20499;-53
2024/01/20 05:08:14;;;;;;;24.07;10.80;;;-7.40;91.80;;;;;;4985868;28;20181;-55
2024/01/20 05:10:40;;;;;;;22.50;9.53;;;-7.40;91.90;;;;;;4986641;28;20194;-59
2024/01/20 05:13:05;;;;;;;30.50;12.37;;;-7.40;91.70;;;;;;4986935;28;20203;-55
2024/01/20 05:15:31;;;;;;;37.97;15.50;;;-7.40;91.70;;;;;;4987416;28;20181;-58
2024/01/20 05:17:57;;;;;;;35.73;15.93;;;-7.40;91.50;;;;;;4986848;28;20204;-59
2024/01/20 05:20:22;;;;;;;25.67;11.97;;;-7.50;91.30;;;;;;4981578;28;20459;-59
2024/01/20 05:22:48;;;;;;;26.50;9.90;;;-7.50;91.40;;;;;;4979448;28;20178;-59
2024/01/20 05:25:14;;;;;;;24.97;10.00;;;-7.50;90.70;;;;;;4986640;28;20177;-60
2024/01/20 05:27:40;;;;;;;22.30;10.00;;;-7.60;90.30;;;;;;4987329;28;20269;-60
2024/01/20 05:30:06;;;;;;;24.73;10.38;;;-7.60;90.00;;;;;;4987362;28;20228;-59
2024/01/20 05:32:32;;;;;;;21.23;9.48;;;-7.60;90.10;;;;;;4983653;28;20190;-59
2024/01/20 05:34:58;;;;;;;19.07;9.67;;;-7.60;90.40;;;;;;4978133;28;20185;-59
2024/01/20 05:37:23;;;;;;;27.10;10.67;;;-7.60;90.50;;;;;;4986794;28;20205;-59
2024/01/20 05:39:50;;;;;;;29.03;12.50;;;-7.60;90.60;;;;;;4986559;28;20276;-60
2024/01/20 05:42:17;;;;;;;49.35;18.95;;;-7.60;91.00;;;;;;4986421;28;20182;-60
2024/01/20 05:44:42;;;;;;;34.22;18.27;;;-7.60;91.20;;;;;;4986849;28;20181;-59
2024/01/20 05:47:08;;;;;;;25.90;13.23;;;-7.60;91.30;;;;;;4985969;28;20189;-59
2024/01/20 05:49:34;;;;;;;25.80;11.27;;;-7.60;91.50;;;;;;4979251;28;20248;-60
2024/01/20 05:51:59;;;;;;;22.77;10.63;;;-7.60;90.40;;;;;;4981992;28;20178;-59
2024/01/20 05:54:25;;;;;;;23.00;11.70;;;-7.60;90.30;;;;;;4980341;28;20260;-60
2024/01/20 05:56:50;;;;;;;22.63;11.03;;;-7.60;90.20;;;;;;4987167;28;20673;-60
2024/01/20 05:59:16;;;;;;;20.67;9.93;;;-7.60;90.30;;;;;;4986679;28;20205;-59
2024/01/20 06:01:41;;;;;;;27.00;10.63;;;-7.60;90.10;;;;;;4986620;28;20181;-59
2024/01/20 06:04:07;;;;;;;18.53;9.40;;;-7.60;89.90;;;;;;4987007;28;20181;-58
2024/01/20 06:06:33;;;;;;;26.80;11.50;;;-7.70;89.00;;;;;;4986474;28;20210;-59
2024/01/20 06:08:58;;;;;;;23.43;10.77;;;-7.70;89.00;;;;;;4979019;28;20256;-58
2024/01/20 06:11:24;;;;;;;22.20;11.20;;;-7.70;90.00;;;;;;4985580;28;20182;-58
2024/01/20 06:13:50;;;;;;;28.43;12.20;;;-7.70;90.00;;;;;;4984797;28;20223;-58
2024/01/20 06:16:16;;;;;;;23.60;10.63;;;-7.70;89.80;;;;;;4988166;28;20189;-62
2024/01/20 06:18:41;;;;;;;22.47;10.37;;;-7.70;90.00;;;;;;4983235;28;20256;-59
2024/01/20 06:21:08;;;;;;;24.90;11.00;;;-7.70;88.90;;;;;;4990468;28;20181;-59
2024/01/20 06:23:34;;;;;;;27.67;11.85;;;-7.70;89.90;;;;;;4990630;28;20185;-59
2024/01/20 06:25:59;;;;;;;25.50;12.15;;;-7.70;90.20;;;;;;4986300;28;20186;-60
2024/01/20 06:28:26;;;;;;;23.73;11.23;;;-7.70;90.10;;;;;;4983555;28;20833;-58
2024/01/20 06:30:52;;;;;;;15.85;8.75;;;-7.80;90.10;;;;;;4986630;28;20204;-59
2024/01/20 06:33:18;;;;;;;23.75;10.85;;;-7.80;90.30;;;;;;4986369;28;20192;-59
2024/01/20 06:35:44;;;;;;;23.65;10.65;;;-7.80;90.60;;;;;;4990075;28;20177;-62
2024/01/20 06:38:10;;;;;;;20.40;9.60;;;-7.90;90.30;;;;;;4987766;28;20185;-61
2024/01/20 06:40:35;;;;;;;20.30;10.30;;;-7.80;90.50;;;;;;4989537;28;20387;-60
2024/01/20 06:43:03;;;;;;;29.60;11.93;;;-7.90;90.20;;;;;;4978351;28;20456;-60
2024/01/20 06:45:33;;;;;;;32.10;12.13;;;-7.90;90.10;;;;;;4982000;28;20170;-61
2024/01/20 06:47:59;;;;;;;20.33;9.77;;;-7.90;90.20;;;;;;4987360;28;20182;-60
2024/01/20 06:50:24;;;;;;;24.90;11.90;;;-7.90;90.00;;;;;;4989547;28;20289;-61
2024/01/20 06:52:50;;;;;;;22.03;11.53;;;-7.90;89.30;;;;;;4983385;28;20277;-61
2024/01/20 06:55:15;;;;;;;25.87;11.50;;;-7.90;88.70;;;;;;4988230;28;20185;-60
2024/01/20 06:57:41;;;;;;;25.30;11.20;;;-8.00;88.30;;;;;;4986744;28;20181;-61
2024/01/20 07:00:08;;;;;;;22.83;10.87;;;-8.00;88.20;;;;;;4987010;28;20898;-61
2024/01/20 07:02:34;;;;;;;18.55;9.07;;;-8.00;88.60;;;;;;4989585;28;20240;-60
2024/01/20 07:05:00;;;;;;;25.15;11.27;;;-8.00;88.40;;;;;;4989376;28;20185;-58
2024/01/20 07:07:26;;;;;;;30.53;10.87;;;-8.00;88.40;;;;;;4984518;28;20591;-60
2024/01/20 07:09:51;;;;;;;19.10;11.37;;;-8.10;88.50;;;;;;4989419;28;20213;-61
2024/01/20 07:12:17;;;;;;;27.27;11.23;;;-8.00;88.80;;;;;;4987533;28;20178;-61
2024/01/20 07:14:43;;;;;;;22.63;10.10;;;-8.00;89.90;;;;;;4987071;28;20177;-61
2024/01/20 07:17:09;;;;;;;23.10;10.70;;;-8.10;90.10;;;;;;4985931;28;20688;-60
2024/01/20 07:19:34;;;;;;;21.57;10.20;;;-8.10;90.20;;;;;;4980942;28;20809;-62
2024/01/20 07:22:00;;;;;;;29.13;11.77;;;-8.00;90.60;;;;;;4988678;28;20456;-61
2024/01/20 07:24:27;;;;;;;24.73;11.60;;;-8.00;90.90;;;;;;4982647;28;20183;-62
2024/01/20 07:26:54;;;;;;;21.38;10.80;;;-8.00;91.20;;;;;;4988935;28;20189;-61
2024/01/20 07:29:19;;;;;;;23.65;11.27;;;-8.00;90.60;;;;;;4987787;28;20251;-62
2024/01/20 07:31:45;;;;;;;23.33;11.37;;;-8.00;90.90;;;;;;4986084;28;20484;-61
2024/01/20 07:34:11;;;;;;;25.27;11.17;;;-7.90;91.20;;;;;;4986390;28;20178;-61
2024/01/20 07:36:37;;;;;;;25.57;10.97;;;-7.90;91.10;;;;;;4988364;28;20738;-62
2024/01/20 07:39:04;;;;;;;31.27;12.77;;;-7.90;90.90;;;;;;4988638;28;20206;-57
2024/01/20 07:41:30;;;;;;;26.35;11.93;;;-7.90;90.90;;;;;;4991094;28;20182;-61
2024/01/20 07:43:55;;;;;;;24.47;12.20;;;-7.90;91.30;;;;;;4985881;28;20536;-60
2024/01/20 07:46:21;;;;;;;29.83;11.87;;;-7.80;91.20;;;;;;4989611;28;20648;-61
2024/01/20 07:48:47;;;;;;;27.10;12.00;;;-7.80;91.00;;;;;;5006560;28;20198;-61
2024/01/20 07:51:12;;;;;;;24.63;12.37;;;-7.90;91.10;;;;;;4990876;28;20244;-61
2024/01/20 07:53:38;;;;;;;33.27;13.17;;;-7.80;92.10;;;;;;4987785;28;20214;-61
2024/01/20 07:56:04;;;;;;;26.93;13.90;;;-7.80;92.40;;;;;;4988225;28;20572;-60
2024/01/20 07:58:29;;;;;;;34.50;12.97;;;-7.70;92.90;;;;;;4987013;28;20197;-61
2024/01/20 08:00:55;;;;;;;27.97;13.40;;;-7.70;92.30;;;;;;4986712;28;20436;-59
2024/01/20 08:03:21;;;;;;;34.33;13.70;;;-7.60;92.00;;;;;;4982441;28;20175;-61
2024/01/20 08:05:46;;;;;;;27.17;12.47;;;-7.60;91.60;;;;;;4983737;28;20276;-55
2024/01/20 08:08:12;;;;;;;30.17;13.57;;;-7.60;91.50;;;;;;4988698;28;20189;-60
2024/01/20 08:10:37;;;;;;;32.10;13.93;;;-7.50;91.80;;;;;;4983761;28;20198;-60
2024/01/20 08:13:03;;;;;;;28.30;13.40;;;-7.50;92.60;;;;;;4973923;28;20174;-57
2024/01/20 08:15:29;;;;;;;30.00;11.40;;;-7.50;92.90;;;;;;4988600;28;20220;-61
2024/01/20 08:17:54;;;;;;;26.63;12.83;;;-7.40;92.60;;;;;;4984969;28;20556;-61
2024/01/20 08:20:20;;;;;;;27.70;13.53;;;-7.30;92.10;;;;;;4988509;28;20209;-61
2024/01/20 08:22:45;;;;;;;30.53;13.60;;;-7.30;92.80;;;;;;4988033;28;20275;-60
2024/01/20 08:25:13;;;;;;;31.23;12.50;;;-7.30;93.10;;;;;;4985387;28;20212;-60
2024/01/20 08:27:38;;;;;;;28.95;12.55;;;-7.20;94.30;;;;;;4988624;28;20173;-61
2024/01/20 08:30:05;;;;;;;26.60;10.97;;;-7.20;95.00;;;;;;4987576;28;20697;-60
2024/01/20 08:32:30;;;;;;;29.98;12.80;;;-7.10;94.70;;;;;;4987480;28;20189;-57
2024/01/20 08:34:56;;;;;;;26.90;12.53;;;-7.00;95.20;;;;;;4978654;28;20701;-61
2024/01/20 08:37:21;;;;;;;31.20;12.20;;;-7.00;95.00;;;;;;4987352;28;20177;-61
2024/01/20 08:39:47;;;;;;;24.00;11.37;;;-6.90;94.10;;;;;;4985417;28;20209;-61
2024/01/20 08:42:12;;;;;;;26.20;11.87;;;-6.80;94.20;;;;;;4984979;28;20187;-61
2024/01/20 08:44:38;;;;;;;30.90;13.53;;;-6.80;94.70;;;;;;4978289;28;20260;-61
2024/01/20 08:47:04;;;;;;;32.00;13.30;;;-6.70;95.30;;;;;;4979608;28;20185;-60
2024/01/20 08:49:29;;;;;;;29.67;13.40;;;-6.70;95.10;;;;;;4984759;28;20211;-61
2024/01/20 08:51:55;;;;;;;29.97;14.43;;;-6.60;95.40;;;;;;4984563;28;20186;-60
2024/01/20 08:54:21;;;;;;;35.80;13.90;;;-6.50;94.90;;;;;;4980538;28;20170;-58
2024/01/20 08:56:47;;;;;;;30.83;14.67;;;-6.50;94.40;;;;;;4979353;28;20197;-57
2024/01/20 08:59:14;;;;;;;35.53;17.23;;;-6.40;95.00;;;;;;4983965;28;20201;-56
2024/01/20 09:01:40;;;;;;;31.60;18.45;;;-6.30;96.00;;;;;;4983863;28;20476;-57
2024/01/20 09:04:06;;;;;;;46.17;17.10;;;-6.30;96.50;;;;;;4981357;28;20182;-58
2024/01/20 09:06:31;;;;;;;45.80;16.70;;;-6.20;96.80;;;;;;4984489;28;20981;-58
2024/01/20 09:08:57;;;;;;;38.33;16.63;;;-6.10;97.00;;;;;;4980438;28;20218;-59
2024/01/20 09:11:22;;;;;;;42.50;17.53;;;-6.10;97.20;;;;;;4984855;28;20656;-60
2024/01/20 09:13:48;;;;;;;43.77;17.77;;;-6.00;97.20;;;;;;4979041;28;20182;-59
2024/01/20 09:16:14;;;;;;;34.63;16.60;;;-5.90;98.10;;;;;;4983991;28;20174;-60
2024/01/20 09:18:39;;;;;;;43.20;18.00;;;-5.70;99.20;;;;;;4978483;28;20903;-59
2024/01/20 09:21:10;;;;;;;36.00;16.53;;;-5.60;99.90;;;;;;4981335;28;20186;-57
2024/01/20 09:23:36;;;;;;;28.27;14.50;;;-5.50;99.90;;;;;;4980021;28;20190;-57
2024/01/20 09:26:02;;;;;;;26.73;13.67;;;-5.30;99.90;;;;;;4978291;28;20785;-58
2024/01/20 09:28:27;;;;;;;25.70;13.23;;;-5.20;99.90;;;;;;4976156;28;20202;-58
2024/01/20 09:30:53;;;;;;;29.50;13.60;;;-5.00;99.90;;;;;;4987029;28;20214;-57
2024/01/20 09:33:18;;;;;;;32.50;13.97;;;-4.90;99.90;;;;;;4976511;28;20787;-58
2024/01/20 09:35:44;;;;;;;26.67;14.10;;;-4.70;99.90;;;;;;4979462;28;20175;-57
2024/01/20 09:38:10;;;;;;;34.23;12.97;;;-4.60;99.30;;;;;;4985172;28;20179;-58
2024/01/20 09:40:36;;;;;;;26.40;13.03;;;-4.50;98.10;;;;;;4983622;28;20178;-58
2024/01/20 09:43:04;;;;;;;30.37;14.10;;;-4.30;97.80;;;;;;4984449;28;20178;-59
2024/01/20 09:45:30;;;;;;;37.63;16.07;;;-4.20;96.50;;;;;;4984944;28;20434;-58
2024/01/20 09:47:57;;;;;;;34.13;14.57;;;-4.10;96.30;;;;;;4983578;28;20986;-57
2024/01/20 09:50:23;;;;;;;29.17;14.10;;;-4.00;96.00;;;;;;4985972;28;20468;-58
2024/01/20 09:53:03;;;;;;;31.53;14.83;;;-3.90;96.50;;;;;;4981035;28;20436;-58
2024/01/20 09:55:28;;;;;;;27.50;13.30;;;-3.80;95.40;;;;;;4985949;28;20215;-54
2024/01/20 09:57:55;;;;;;;28.07;13.57;;;-3.70;94.60;;;;;;4983102;28;20462;-58
2024/01/20 10:00:22;;;;;;;31.13;14.37;;;-3.60;93.70;;;;;;4983286;28;20203;-57
2024/01/20 10:02:48;;;;;;;32.13;15.27;;;-3.50;93.10;;;;;;4982587;28;20884;-58
2024/01/20 10:05:15;;;;;;;35.00;15.83;;;-3.40;92.80;;;;;;4977714;28;21300;-58
2024/01/20 10:07:41;;;;;;;27.63;13.80;;;-3.30;92.30;;;;;;4981269;28;20747;-58
2024/01/20 10:10:09;;;;;;;28.37;14.93;;;-3.20;92.00;;;;;;4980019;28;21097;-57
2024/01/20 10:12:36;;;;;;;33.40;17.73;;;-3.10;92.20;;;;;;4984426;28;20421;-58
2024/01/20 10:15:01;;;;;;;25.53;13.60;;;-3.00;91.30;;;;;;4974471;28;20436;-58
2024/01/20 10:17:27;;;;;;;27.33;13.50;;;-2.90;89.60;;;;;;4978030;28;20992;-58
2024/01/20 10:19:53;;;;;;;21.77;13.17;;;-2.80;90.00;;;;;;4981761;28;20249;-58
2024/01/20 10:22:19;;;;;;;24.27;13.30;;;-2.70;88.40;;;;;;4982493;28;20660;-58
2024/01/20 10:24:48;;;;;;;24.87;13.17;;;-2.60;88.80;;;;;;4984720;28;20186;-58
2024/01/20 10:27:18;;;;;;;21.53;12.17;;;-2.50;88.40;;;;;;4982650;28;20521;-58
2024/01/20 10:29:48;;;;;;;21.80;12.30;;;-2.40;89.90;;;;;;4978311;28;20562;-57
2024/01/20 10:32:14;;;;;;;16.40;9.23;;;-2.20;86.60;;;;;;4980676;28;20429;-57
2024/01/20 10:34:40;;;;;;;14.27;9.30;;;-2.10;85.50;;;;;;4982340;28;20435;-57
2024/01/20 10:37:12;;;;;;;14.23;9.47;;;-2.00;82.60;;;;;;4974553;28;20418;-57
2024/01/20 10:39:42;;;;;;;13.73;9.47;;;-1.80;81.20;;;;;;4982279;28;20476;-58
2024/01/20 10:42:12;;;;;;;15.27;10.00;;;-1.70;77.90;;;;;;4980557;28;20511;-57
2024/01/20 10:44:44;;;;;;;14.53;8.30;;;-1.70;76.80;;;;;;4983088;28;20424;-58
2024/01/20 10:47:16;;;;;;;12.97;7.93;;;-1.50;75.60;;;;;;4975010;28;20433;-58
2024/01/20 10:49:45;;;;;;;13.20;7.60;;;-1.50;73.20;;;;;;4975345;28;20508;-57
2024/01/20 10:52:13;;;;;;;14.57;8.10;;;-1.40;72.70;;;;;;4976050;28;20444;-58
2024/01/20 10:54:41;;;;;;;13.67;7.50;;;-1.30;71.20;;;;;;4979480;28;20435;-58
2024/01/20 10:57:06;;;;;;;12.30;7.00;;;-1.20;70.30;;;;;;4980854;28;20436;-59
2024/01/20 10:59:37;;;;;;;18.40;7.33;;;-1.20;69.10;;;;;;4982174;28;20839;-59
2024/01/20 11:02:04;;;;;;;18.73;7.97;;;-1.10;67.90;;;;;;4988522;28;20187;-57
2024/01/20 11:04:34;;;;;;;14.40;6.57;;;-1.00;67.80;;;;;;4985396;28;20504;-59
2024/01/20 11:07:00;;;;;;;11.27;6.90;;;-0.90;66.70;;;;;;4986334;28;20948;-59
2024/01/20 11:09:26;;;;;;;12.80;6.17;;;-0.90;65.40;;;;;;4980527;28;20501;-58
2024/01/20 11:12:03;;;;;;;11.03;6.20;;;-0.70;65.20;;;;;;4981462;28;22155;-58
2024/01/20 11:14:31;;;;;;;12.93;7.30;;;-0.60;64.60;;;;;;4998489;23;20233;-60
2024/01/20 11:17:00;;;;;;;10.80;6.40;;;-0.50;63.70;;;;;;5000941;28;20440;-58
2024/01/20 11:19:30;;;;;;;13.60;7.23;;;-0.40;63.40;;;;;;5003548;28;20437;-59
2024/01/20 11:21:55;;;;;;;13.17;5.70;;;-0.20;62.70;;;;;;5002397;28;20431;-59
2024/01/20 11:24:38;;;;;;;11.37;5.80;;;-0.10;61.50;;;;;;4998073;28;20502;-60
2024/01/20 11:27:04;;;;;;;10.10;5.30;;;0.00;61.10;;;;;;4984991;28;20215;-59
2024/01/20 11:29:30;;;;;;;12.10;6.47;;;0.10;59.90;;;;;;4984451;28;21023;-60
2024/01/20 11:31:56;;;;;;;8.90;5.77;;;0.20;59.70;;;;;;4981488;28;20176;-60
2024/01/20 11:34:22;;;;;;;6.67;4.63;;;0.30;59.00;;;;;;4988094;28;20203;-60
2024/01/20 11:36:48;;;;;;;11.17;6.00;;;0.50;58.40;;;;;;4988599;28;20430;-59
2024/01/20 11:39:14;;;;;;;12.10;5.80;;;0.60;57.90;;;;;;4986875;28;20291;-59
2024/01/20 11:41:40;;;;;;;9.80;6.30;;;0.70;57.40;;;;;;4990323;28;20441;-61
2024/01/20 11:44:06;;;;;;;14.17;6.90;;;0.80;56.50;;;;;;4988986;28;20518;-59
2024/01/20 11:46:32;;;;;;;13.90;7.03;;;1.00;56.20;;;;;;4988710;28;20427;-60
2024/01/20 11:48:57;;;;;;;23.53;7.50;;;1.00;55.60;;;;;;4986087;28;20211;-60
2024/01/20 11:51:24;;;;;;;12.33;6.60;;;1.10;55.20;;;;;;4988032;28;20203;-61
2024/01/20 11:53:50;;;;;;;12.33;6.30;;;1.20;54.90;;;;;;4984764;28;20186;-60
2024/01/20 11:56:16;;;;;;;12.07;5.73;;;1.30;54.50;;;;;;4989076;28;20455;-60
2024/01/20 11:58:42;;;;;;;14.60;6.47;;;1.40;53.70;;;;;;4982793;28;20225;-59
2024/01/20 12:01:07;;;;;;;8.83;4.50;;;1.40;53.30;;;;;;4979340;28;20462;-60
2024/01/20 12:03:33;;;;;;;11.07;5.00;;;1.40;52.50;;;;;;4985235;28;20187;-61
2024/01/20 12:06:07;;;;;;;10.87;5.30;;;1.40;51.80;;;;;;4988756;28;20291;-60
2024/01/20 12:08:34;;;;;;;8.80;5.60;;;1.40;51.70;;;;;;4981386;28;20183;-59
2024/01/20 12:11:00;;;;;;;7.67;5.07;;;1.50;51.30;;;;;;4986566;28;20561;-59
2024/01/20 12:13:32;;;;;;;9.93;5.30;;;1.50;50.60;;;;;;4982665;28;20591;-59
2024/01/20 12:15:58;;;;;;;9.47;5.17;;;1.40;50.10;;;;;;4984288;28;20630;-59
2024/01/20 12:18:24;;;;;;;12.17;4.37;;;1.20;50.00;;;;;;4988704;28;20482;-61
2024/01/20 12:20:50;;;;;;;8.93;4.60;;;1.00;50.10;;;;;;4985485;28;20434;-60
2024/01/20 12:23:19;;;;;;;6.60;4.60;;;1.00;50.60;;;;;;4983740;28;20957;-60
2024/01/20 12:25:46;;;;;;;20.53;5.50;;;0.90;50.40;;;;;;4976341;28;20218;-59